createdAt,value
2022-08-29T00:01:58.577Z,4.40
2022-08-29T00:05:01.218Z,4.53
2022-08-29T00:08:06.675Z,5.33
2022-08-29T00:11:09.293Z,4.73
2022-08-29T00:14:20.448Z,4.87
2022-08-29T00:17:25.918Z,4.93
2022-08-29T00:20:34.625Z,4.97
2022-08-29T00:23:39.017Z,5.30
2022-08-29T00:26:41.614Z,4.50
2022-08-29T00:29:44.235Z,4.90
2022-08-29T00:32:46.805Z,4.30
2022-08-29T00:35:49.445Z,5.03
2022-08-29T00:38:54.799Z,4.47
2022-08-29T00:42:01.011Z,4.40
2022-08-29T00:45:05.954Z,4.10
2022-08-29T00:48:13.089Z,4.73
2022-08-29T00:51:18.763Z,4.77
2022-08-29T00:54:23.530Z,4.73
2022-08-29T00:57:29.429Z,4.57
2022-08-29T01:00:33.106Z,4.33
2022-08-29T01:03:42.687Z,4.93
2022-08-29T01:06:46.644Z,4.10
2022-08-29T01:09:50.614Z,4.53
2022-08-29T01:12:52.401Z,4.33
2022-08-29T01:15:55.905Z,4.60
2022-08-29T01:19:04.125Z,4.10
2022-08-29T01:22:19.874Z,4.03
2022-08-29T01:25:26.853Z,4.43
2022-08-29T01:28:32.671Z,3.87
2022-08-29T01:31:55.895Z,3.90
2022-08-29T01:35:00.373Z,5.13
2022-08-29T01:38:03.108Z,5.77
2022-08-29T01:41:07.429Z,5.43
2022-08-29T01:44:12.473Z,6.43
2022-08-29T01:47:15.206Z,7.00
2022-08-29T01:50:18.255Z,6.67
2022-08-29T01:53:20.869Z,6.10
2022-08-29T01:56:27.280Z,6.73
2022-08-29T01:59:31.539Z,6.23
2022-08-29T02:02:34.328Z,5.30
2022-08-29T02:05:37.006Z,4.80
2022-08-29T02:08:41.290Z,4.87
2022-08-29T02:11:46.417Z,4.97
2022-08-29T02:14:50.601Z,4.33
2022-08-29T02:17:53.157Z,5.20
2022-08-29T02:20:55.826Z,4.23
2022-08-29T02:24:11.459Z,4.33
2022-08-29T02:27:24.936Z,4.60
2022-08-29T02:30:27.662Z,5.17
2022-08-29T02:33:31.288Z,5.47
2022-08-29T02:36:35.010Z,5.30
2022-08-29T02:39:37.622Z,5.37
2022-08-29T02:42:41.578Z,5.07
2022-08-29T02:45:44.834Z,4.90
2022-08-29T02:48:54.126Z,5.37
2022-08-29T02:52:06.510Z,4.60
2022-08-29T02:55:12.237Z,4.73
2022-08-29T02:58:16.753Z,5.73
2022-08-29T03:01:21.528Z,4.83
2022-08-29T03:04:24.270Z,5.50
2022-08-29T03:07:26.922Z,5.87
2022-08-29T03:10:29.790Z,5.20
2022-08-29T03:13:34.623Z,5.03
2022-08-29T03:16:37.275Z,5.00
2022-08-29T03:19:39.901Z,4.70
2022-08-29T03:22:42.614Z,4.93
2022-08-29T03:25:45.235Z,5.63
2022-08-29T03:28:49.220Z,5.80
2022-08-29T03:31:51.832Z,5.73
2022-08-29T03:34:55.785Z,4.90
2022-08-29T03:37:58.505Z,5.00
2022-08-29T03:41:01.084Z,5.20
2022-08-29T03:44:05.215Z,5.47
2022-08-29T03:47:08.251Z,5.53
2022-08-29T03:50:13.096Z,5.17
2022-08-29T03:53:17.249Z,5.33
2022-08-29T03:56:20.626Z,5.60
2022-08-29T03:59:24.705Z,4.97
2022-08-29T04:02:27.430Z,5.30
2022-08-29T04:05:30.106Z,4.83
2022-08-29T04:08:32.708Z,4.87
2022-08-29T04:11:35.287Z,5.30
2022-08-29T04:14:39.477Z,5.43
2022-08-29T04:17:51.036Z,5.73
2022-08-29T04:21:02.573Z,6.10
2022-08-29T04:24:05.261Z,5.43
2022-08-29T04:27:08.062Z,6.10
2022-08-29T04:30:15.533Z,6.97
2022-08-29T04:33:22.521Z,5.93
2022-08-29T04:36:26.049Z,5.90
2022-08-29T04:39:28.618Z,5.53
2022-08-29T04:42:32.028Z,5.20
2022-08-29T04:45:36.743Z,5.47
2022-08-29T04:48:39.306Z,5.83
2022-08-29T04:51:41.955Z,6.50
2022-08-29T04:54:44.537Z,5.97
2022-08-29T04:57:47.482Z,5.17
2022-08-29T05:00:52.642Z,5.90
2022-08-29T05:03:56.477Z,5.63
2022-08-29T05:06:59.104Z,6.47
2022-08-29T05:10:05.314Z,5.63
2022-08-29T05:13:07.910Z,5.70
2022-08-29T05:16:13.974Z,5.33
2022-08-29T05:19:16.990Z,5.87
2022-08-29T05:22:21.070Z,5.57
2022-08-29T05:25:24.186Z,5.10
2022-08-29T05:28:26.927Z,5.53
2022-08-29T05:31:31.222Z,5.43
2022-08-29T05:34:35.292Z,5.53
2022-08-29T05:37:38.696Z,6.00
2022-08-29T05:40:41.859Z,6.17
2022-08-29T05:43:44.513Z,6.70
2022-08-29T05:46:48.716Z,5.93
2022-08-29T05:49:51.339Z,6.00
2022-08-29T05:52:53.921Z,6.27
2022-08-29T05:55:56.679Z,6.50
2022-08-29T05:58:59.497Z,5.10
2022-08-29T06:02:03.874Z,4.93
2022-08-29T06:05:07.166Z,4.90
2022-08-29T06:08:13.135Z,3.97
2022-08-29T06:11:17.259Z,4.23
2022-08-29T06:14:19.853Z,3.93
2022-08-29T06:17:23.802Z,4.40
2022-08-29T06:20:26.448Z,4.30
2022-08-29T06:23:29.063Z,3.50
2022-08-29T06:26:32.803Z,3.70
2022-08-29T06:29:43.508Z,3.57
2022-08-29T06:32:47.769Z,3.10
2022-08-29T06:35:50.337Z,2.70
2022-08-29T06:38:53.007Z,3.23
2022-08-29T06:41:55.601Z,3.17
2022-08-29T06:44:58.208Z,3.20
2022-08-29T06:48:02.107Z,2.73
2022-08-29T06:51:05.077Z,2.33
2022-08-29T06:54:09.166Z,2.47
2022-08-29T06:57:12.777Z,2.63
2022-08-29T07:00:22.126Z,2.30
2022-08-29T07:03:26.604Z,2.20
2022-08-29T07:06:29.813Z,2.03
2022-08-29T07:09:32.390Z,1.90
2022-08-29T07:12:35.293Z,2.03
2022-08-29T07:15:38.151Z,1.57
2022-08-29T07:18:42.102Z,1.60
2022-08-29T07:21:44.681Z,1.87
2022-08-29T07:24:47.307Z,1.57
2022-08-29T07:27:53.349Z,1.40
2022-08-29T07:30:56.213Z,1.50
2022-08-29T07:34:02.925Z,1.70
2022-08-29T07:37:06.122Z,1.77
2022-08-29T07:40:11.098Z,1.40
2022-08-29T07:43:19.249Z,1.70
2022-08-29T07:46:22.889Z,1.33
2022-08-29T07:49:40.339Z,1.60
2022-08-29T07:52:43.823Z,1.73
2022-08-29T07:55:46.632Z,1.67
2022-08-29T07:58:49.355Z,1.70
2022-08-29T08:01:52.266Z,1.50
2022-08-29T08:04:56.227Z,1.63
2022-08-29T08:08:02.159Z,1.93
2022-08-29T08:11:09.628Z,1.63
2022-08-29T08:14:12.980Z,2.10
2022-08-29T08:17:15.600Z,1.80
2022-08-29T08:20:19.701Z,1.77
2022-08-29T08:23:22.208Z,1.80
2022-08-29T08:26:25.023Z,1.60
2022-08-29T08:29:27.662Z,1.73
2022-08-29T08:32:32.667Z,1.70
2022-08-29T08:35:41.967Z,1.60
2022-08-29T08:38:44.915Z,1.42
2022-08-29T08:41:55.704Z,1.90
2022-08-29T08:45:09.020Z,1.30
2022-08-29T08:48:17.247Z,1.50
2022-08-29T08:51:24.554Z,1.38
2022-08-29T08:54:34.257Z,1.30
2022-08-29T08:57:40.866Z,1.50
2022-08-29T09:00:47.180Z,1.40
2022-08-29T09:04:10.497Z,1.20
2022-08-29T09:07:42.059Z,1.20
2022-08-29T09:10:58.855Z,1.38
2022-08-29T09:14:08.519Z,1.10
2022-08-29T09:17:20.304Z,1.20
2022-08-29T09:20:25.982Z,1.23
2022-08-29T09:23:37.435Z,1.20
2022-08-29T09:26:40.761Z,1.02
2022-08-29T09:29:43.702Z,1.23
2022-08-29T09:32:54.700Z,1.20
2022-08-29T09:35:57.291Z,1.38
2022-08-29T09:39:12.109Z,1.20
2022-08-29T09:42:19.257Z,1.40
2022-08-29T09:45:25.643Z,1.30
2022-08-29T09:48:32.132Z,1.00
2022-08-29T09:51:39.416Z,1.10
2022-08-29T09:54:44.432Z,1.00
2022-08-29T09:57:53.061Z,0.93
2022-08-29T10:01:02.182Z,0.95
2022-08-29T10:04:09.043Z,1.15
2022-08-29T10:07:17.415Z,1.10
2022-08-29T10:10:24.204Z,1.00
2022-08-29T10:13:34.376Z,0.90
2022-08-29T10:16:47.201Z,0.90
2022-08-29T10:19:50.353Z,0.82
2022-08-29T10:22:59.126Z,0.80
2022-08-29T10:26:10.569Z,0.90
2022-08-29T10:29:29.657Z,0.88
2022-08-29T10:32:55.949Z,0.82
2022-08-29T10:36:02.170Z,0.90
2022-08-29T10:39:13.670Z,0.90
2022-08-29T10:42:21.554Z,0.90
2022-08-29T10:45:30.684Z,0.90
2022-08-29T10:48:38.518Z,0.80
2022-08-29T10:51:48.431Z,0.85
2022-08-29T10:55:00.307Z,1.00
2022-08-29T10:58:12.781Z,1.00
2022-08-29T11:01:22.314Z,1.00
2022-08-29T11:04:31.788Z,0.73
2022-08-29T11:07:40.735Z,0.82
2022-08-29T11:10:49.673Z,0.90
2022-08-29T11:13:58.737Z,0.90
2022-08-29T11:17:06.971Z,0.82
2022-08-29T11:20:13.829Z,1.00
2022-08-29T11:23:28.103Z,0.95
2022-08-29T11:26:45.843Z,0.90
2022-08-29T11:29:57.894Z,0.90
2022-08-29T11:33:09.918Z,1.15
2022-08-29T11:36:40.633Z,1.00
2022-08-29T11:39:59.864Z,0.80
2022-08-29T11:43:12.420Z,0.90
2022-08-29T11:46:31.044Z,1.02
2022-08-29T11:49:40.857Z,0.85
2022-08-29T11:52:51.033Z,0.80
2022-08-29T11:56:21.413Z,0.90
2022-08-29T11:59:59.523Z,1.00
2022-08-29T12:03:04.561Z,1.00
2022-08-29T12:06:29.737Z,1.00
2022-08-29T12:09:51.047Z,1.08
2022-08-29T12:12:56.527Z,0.90
2022-08-29T12:16:08.652Z,1.00
2022-08-29T12:19:12.846Z,1.00
2022-08-29T12:22:53.033Z,0.95
2022-08-29T12:26:16.214Z,1.08
2022-08-29T12:29:22.048Z,1.02
2022-08-29T12:32:40.278Z,0.93
2022-08-29T12:36:10.793Z,1.10
2022-08-29T12:39:46.799Z,1.10
2022-08-29T12:43:07.748Z,1.20
2022-08-29T12:46:18.121Z,1.10
2022-08-29T12:49:25.578Z,1.10
2022-08-29T12:52:32.289Z,1.23
2022-08-29T12:55:39.851Z,1.35
2022-08-29T12:58:45.339Z,1.10
2022-08-29T13:01:50.452Z,1.35
2022-08-29T13:04:58.311Z,1.20
2022-08-29T13:08:09.630Z,1.15
2022-08-29T13:11:19.617Z,1.13
2022-08-29T13:14:23.690Z,1.20
2022-08-29T13:17:29.822Z,0.95
2022-08-29T13:20:46.727Z,1.40
2022-08-29T13:23:59.897Z,1.20
2022-08-29T13:27:06.309Z,1.30
2022-08-29T13:30:09.995Z,1.00
2022-08-29T13:33:34.822Z,0.90
2022-08-29T13:36:41.394Z,0.85
2022-08-29T13:39:47.837Z,0.80
2022-08-29T13:42:50.512Z,0.80
2022-08-29T13:46:03.410Z,0.90
2022-08-29T13:49:08.426Z,1.08
2022-08-29T13:52:11.572Z,0.90
2022-08-29T13:55:15.493Z,0.90
2022-08-29T13:58:22.686Z,1.00
2022-08-29T14:02:08.550Z,1.08
2022-08-29T14:04:48.659Z,1.05
2022-08-29T14:07:51.457Z,1.00
2022-08-29T14:10:55.358Z,1.33
2022-08-29T14:13:57.918Z,0.90
2022-08-29T14:17:00.672Z,0.90
2022-08-29T14:20:03.640Z,0.90
2022-08-29T14:23:06.301Z,0.80
2022-08-29T14:26:10.229Z,1.10
2022-08-29T14:29:12.953Z,0.82
2022-08-29T14:32:15.786Z,1.10
2022-08-29T14:35:25.731Z,0.80
2022-08-29T14:38:29.554Z,0.80
2022-08-29T14:41:33.830Z,0.80
2022-08-29T14:44:36.426Z,1.08
2022-08-29T14:47:39.507Z,0.80
2022-08-29T14:50:42.105Z,0.70
2022-08-29T14:53:51.605Z,0.85
2022-08-29T14:56:58.769Z,1.10
2022-08-29T15:00:01.392Z,1.00
2022-08-29T15:03:04.463Z,1.20
2022-08-29T15:06:07.594Z,0.90
2022-08-29T15:09:10.175Z,1.00
2022-08-29T15:12:15.721Z,0.95
2022-08-29T15:15:18.734Z,1.10
2022-08-29T15:19:00.691Z,1.05
2022-08-29T15:21:45.362Z,1.20
2022-08-29T15:24:50.008Z,0.90
2022-08-29T15:27:53.931Z,0.93
2022-08-29T15:30:56.542Z,0.93
2022-08-29T15:33:59.390Z,0.85
2022-08-29T15:37:02.223Z,0.85
2022-08-29T15:40:10.936Z,0.80
2022-08-29T15:43:16.851Z,0.82
2022-08-29T15:46:19.508Z,0.80
2022-08-29T15:49:25.557Z,1.05
2022-08-29T15:52:31.063Z,0.93
2022-08-29T15:55:33.954Z,0.90
2022-08-29T15:58:38.006Z,0.90
2022-08-29T16:01:43.541Z,0.63
2022-08-29T16:04:47.787Z,0.60
2022-08-29T16:07:50.601Z,0.80
2022-08-29T16:10:53.220Z,0.90
2022-08-29T16:14:15.672Z,1.00
2022-08-29T16:17:20.347Z,0.87
2022-08-29T16:20:23.170Z,0.93
2022-08-29T16:23:25.752Z,0.73
2022-08-29T16:26:28.464Z,1.00
2022-08-29T16:29:32.624Z,0.80
2022-08-29T16:32:35.460Z,1.00
2022-08-29T16:35:39.174Z,0.90
2022-08-29T16:38:42.853Z,0.90
2022-08-29T16:41:46.042Z,1.10
2022-08-29T16:44:50.007Z,0.83
2022-08-29T16:47:57.251Z,1.00
2022-08-29T16:51:00.180Z,1.10
2022-08-29T16:54:02.785Z,1.00
2022-08-29T16:57:05.758Z,1.30
2022-08-29T17:00:11.890Z,1.10
2022-08-29T17:03:19.412Z,1.10
2022-08-29T17:06:22.704Z,1.47
2022-08-29T17:09:25.342Z,1.03
2022-08-29T17:12:27.490Z,1.03
2022-08-29T17:15:30.751Z,1.10
2022-08-29T17:18:33.793Z,1.17
2022-08-29T17:21:36.683Z,1.10
2022-08-29T17:24:39.282Z,1.20
2022-08-29T17:27:55.506Z,1.00
2022-08-29T17:31:06.492Z,1.20
2022-08-29T17:34:13.088Z,1.07
2022-08-29T17:37:16.046Z,1.40
2022-08-29T17:40:19.131Z,1.27
2022-08-29T17:43:25.898Z,1.00
2022-08-29T17:46:30.193Z,1.20
2022-08-29T17:49:32.961Z,1.10
2022-08-29T17:52:35.611Z,1.10
2022-08-29T17:55:38.264Z,1.20
2022-08-29T17:58:40.881Z,1.00
2022-08-29T18:01:45.227Z,1.03
2022-08-29T18:04:47.859Z,1.20
2022-08-29T18:07:51.397Z,1.10
2022-08-29T18:10:53.986Z,1.00
2022-08-29T18:13:56.667Z,1.00
2022-08-29T18:17:00.674Z,1.10
2022-08-29T18:20:03.792Z,1.20
2022-08-29T18:23:06.349Z,1.13
2022-08-29T18:26:08.961Z,1.17
2022-08-29T18:29:11.707Z,1.10
2022-08-29T18:32:15.601Z,1.30
2022-08-29T18:35:18.673Z,1.10
2022-08-29T18:38:21.317Z,1.00
2022-08-29T18:41:23.865Z,1.03
2022-08-29T18:44:26.426Z,1.20
2022-08-29T18:47:30.380Z,1.10
2022-08-29T18:50:36.500Z,1.10
2022-08-29T18:53:39.780Z,1.23
2022-08-29T18:56:42.387Z,1.20
2022-08-29T18:59:45.046Z,1.20
2022-08-29T19:02:49.122Z,1.20
2022-08-29T19:05:53.862Z,1.33
2022-08-29T19:08:57.610Z,1.00
2022-08-29T19:12:00.544Z,1.80
2022-08-29T19:15:04.137Z,1.30
2022-08-29T19:18:09.473Z,1.20
2022-08-29T19:21:12.093Z,1.20
2022-08-29T19:24:14.693Z,1.13
2022-08-29T19:27:39.756Z,1.30
2022-08-29T19:30:40.090Z,1.10
2022-08-29T19:33:44.079Z,1.30
2022-08-29T19:36:47.333Z,1.30
2022-08-29T19:39:49.942Z,1.10
2022-08-29T19:42:53.992Z,1.00
2022-08-29T19:45:57.435Z,1.10
2022-08-29T19:52:10.786Z,1.20
2022-08-29T19:55:17.543Z,0.90
2022-08-29T19:58:20.228Z,1.10
2022-08-29T20:01:23.359Z,1.23
2022-08-29T20:04:27.532Z,1.10
2022-08-29T20:07:30.424Z,1.20
2022-08-29T20:10:34.882Z,1.00
2022-08-29T20:13:38.100Z,1.10
2022-08-29T20:16:41.712Z,1.73
2022-08-29T20:19:45.943Z,1.20
2022-08-29T20:22:49.165Z,1.40
2022-08-29T20:25:51.756Z,1.30
2022-08-29T20:28:54.841Z,1.37
2022-08-29T20:31:57.579Z,1.33
2022-08-29T20:35:02.968Z,1.30
2022-08-29T20:38:04.599Z,1.57
2022-08-29T20:41:07.256Z,1.30
2022-08-29T20:44:10.873Z,1.27
2022-08-29T20:47:15.621Z,1.03
2022-08-29T20:50:20.497Z,1.20
2022-08-29T20:53:32.415Z,1.13
2022-08-29T20:56:35.423Z,1.17
2022-08-29T20:59:39.376Z,1.40
2022-08-29T21:02:59.765Z,1.50
2022-08-29T21:06:04.329Z,1.30
2022-08-29T21:09:07.238Z,1.50
2022-08-29T21:12:11.704Z,1.50
2022-08-29T21:15:14.320Z,1.33
2022-08-29T21:18:20.216Z,1.37
2022-08-29T21:21:25.180Z,1.27
2022-08-29T21:24:28.783Z,1.43
2022-08-29T21:27:31.368Z,1.27
2022-08-29T21:30:34.440Z,1.20
2022-08-29T21:33:37.958Z,1.40
2022-08-29T21:36:41.995Z,1.60
2022-08-29T21:39:46.481Z,1.27
2022-08-29T21:42:49.037Z,1.40
2022-08-29T21:45:51.622Z,1.47
2022-08-29T21:48:56.679Z,1.27
2022-08-29T21:52:01.062Z,1.43
2022-08-29T21:55:05.023Z,1.70
2022-08-29T21:58:07.989Z,1.30
2022-08-29T22:01:11.364Z,1.47
2022-08-29T22:04:19.113Z,1.50
2022-08-29T22:07:33.130Z,1.40
2022-08-29T22:10:38.241Z,1.40
2022-08-29T22:13:41.167Z,1.60
2022-08-29T22:16:42.940Z,1.70
2022-08-29T22:19:45.758Z,1.33
2022-08-29T22:22:49.713Z,1.70
2022-08-29T22:25:53.756Z,1.60
2022-08-29T22:28:56.705Z,1.37
2022-08-29T22:32:00.485Z,1.50
2022-08-29T22:35:03.136Z,1.20
2022-08-29T22:38:07.091Z,1.47
2022-08-29T22:41:11.280Z,1.40
2022-08-29T22:44:59.612Z,1.50
2022-08-29T22:47:37.664Z,1.37
2022-08-29T22:50:40.317Z,1.40
2022-08-29T22:54:08.235Z,1.40
2022-08-29T22:57:13.593Z,1.30
2022-08-29T23:00:19.172Z,1.30
2022-08-29T23:03:21.790Z,1.13
2022-08-29T23:06:25.299Z,1.60
2022-08-29T23:09:35.392Z,1.40
2022-08-29T23:12:39.054Z,1.50
2022-08-29T23:15:41.706Z,1.30
2022-08-29T23:18:44.373Z,1.17
2022-08-29T23:21:46.981Z,1.40
2022-08-29T23:24:58.233Z,1.30
2022-08-29T23:28:02.027Z,1.30
2022-08-29T23:31:04.965Z,1.20
2022-08-29T23:34:07.999Z,1.33
2022-08-29T23:37:10.691Z,1.30
2022-08-29T23:40:21.089Z,1.30
2022-08-29T23:43:24.505Z,1.20
2022-08-29T23:46:27.454Z,1.20
2022-08-29T23:49:30.479Z,1.40
2022-08-29T23:52:33.114Z,1.37
2022-08-29T23:55:37.493Z,1.30
2022-08-29T23:58:40.099Z,1.33
